Glenbrook Heights, California
Current Conditions -  °F | °C
As of 1:35 PM on Monday 24 Nov 2014 (Local Time) from KGOO Reporting Station
Clear Clear  
Wind Chill: 59°   Ceiling: Unl
Heat Index: 59°   Visibility: 3mi
Dew Point: 25°   Wind: 6mph
Humidity: 27%   Direction: 290°WNW
Pressure: 30.36"   Gusts: NA
Location:  39.2183°N, 120.924°W
Report Text: KGOO 242135Z AUTO 29005KT 3SM CLR 15/M04 A3036 RMK AO1
Loading
Personal Weather Stations






























Interactive Weather Map New forecast layout! Learn more

10-Day Weather Forecast

Advertisements
Track Severe Weather on mobile